Time,TemperatureF,DewpointF,PressureIn,WindDirection,WindDirectionDegrees,WindSpeedMPH,WindSpeedGustMPH,Humidity,HourlyPrecipIn,Conditions,Clouds,dailyrainin,SoftwareType,DateUTC
2013-09-24 00:00:00,74.1,35.0,29.82,ESE,113,1.0,1.0,24,0.00,,,0.00,Wunderground v.1.15,2013-09-24 07:00:00,
2013-09-24 00:05:00,73.7,34.6,29.82,ESE,107,2.0,2.0,24,0.00,,,0.00,Wunderground v.1.15,2013-09-24 07:05:00,
2013-09-24 00:10:00,73.5,34.5,29.82,ESE,122,2.0,3.0,24,0.00,,,0.00,Wunderground v.1.15,2013-09-24 07:10:00,
2013-09-24 00:15:00,73.7,34.6,29.82,ESE,104,0.0,3.0,24,0.00,,,0.00,Wunderground v.1.15,2013-09-24 07:15:00,
2013-09-24 00:20:00,72.8,37.8,29.81,ENE,77,0.0,1.0,28,0.00,,,0.00,Wunderground v.1.15,2013-09-24 07:20:00,
2013-09-24 00:25:00,72.4,35.6,29.82,ESE,103,2.0,3.0,26,0.00,,,0.00,Wunderground v.1.15,2013-09-24 07:25:00,
2013-09-24 00:30:00,73.5,34.5,29.82,East,84,1.0,1.0,24,0.00,,,0.00,Wunderground v.1.15,2013-09-24 07:30:00,
2013-09-24 00:35:00,73.9,34.8,29.82,ESE,108,0.0,2.0,24,0.00,,,0.00,Wunderground v.1.15,2013-09-24 07:35:00,
2013-09-24 00:40:00,73.7,34.6,29.81,ESE,110,0.0,1.0,24,0.00,,,0.00,Wunderground v.1.15,2013-09-24 07:40:00,
2013-09-24 00:45:00,73.2,35.2,29.82,East,96,0.0,1.0,25,0.00,,,0.00,Wunderground v.1.15,2013-09-24 07:45:00,
2013-09-24 00:50:00,71.7,42.6,29.82,NW,316,0.0,1.0,35,0.00,,,0.00,Wunderground v.1.15,2013-09-24 07:50:00,
2013-09-24 00:55:00,68.2,43.6,29.82,North,359,0.0,3.0,41,0.00,,,0.00,Wunderground v.1.15,2013-09-24 07:55:00,
2013-09-24 01:00:00,66.4,42.0,29.82,North,359,0.0,0.0,41,0.00,,,0.00,Wunderground v.1.15,2013-09-24 08:00:00,
2013-09-24 01:05:00,65.6,39.3,29.82,North,360,0.0,1.0,38,0.00,,,0.00,Wunderground v.1.15,2013-09-24 08:05:00,
2013-09-24 01:10:00,65.4,39.1,29.82,East,82,0.0,0.0,38,0.00,,,0.00,Wunderground v.1.15,2013-09-24 08:10:00,
2013-09-24 01:15:00,66.7,39.6,29.82,ENE,78,1.0,2.0,37,0.00,,,0.00,Wunderground v.1.15,2013-09-24 08:15:00,
2013-09-24 01:20:00,67.8,38.4,29.82,ENE,77,0.0,1.0,34,0.00,,,0.00,Wunderground v.1.15,2013-09-24 08:20:00,
2013-09-24 01:25:00,68.2,38.0,29.82,East,81,0.0,1.0,33,0.00,,,0.00,Wunderground v.1.15,2013-09-24 08:25:00,
2013-09-24 01:30:00,68.5,37.5,29.82,East,81,0.0,0.0,32,0.00,,,0.00,Wunderground v.1.15,2013-09-24 08:30:00,
2013-09-24 01:35:00,68.6,36.7,29.82,East,84,0.0,0.0,31,0.00,,,0.00,Wunderground v.1.15,2013-09-24 08:35:00,
2013-09-24 01:40:00,68.3,36.5,29.82,East,101,0.0,0.0,31,0.00,,,0.00,Wunderground v.1.15,2013-09-24 08:40:00,
2013-09-24 01:45:00,68.1,37.9,29.82,ESE,107,0.0,1.0,33,0.00,,,0.00,Wunderground v.1.15,2013-09-24 08:45:00,
2013-09-24 01:50:00,67.8,38.4,29.82,ESE,108,0.0,0.0,34,0.00,,,0.00,Wunderground v.1.15,2013-09-24 08:50:00,
2013-09-24 01:55:00,67.2,39.3,29.82,ESE,108,0.0,0.0,36,0.00,,,0.00,Wunderground v.1.15,2013-09-24 08:55:00,
2013-09-24 02:00:00,66.6,39.5,29.82,ESE,111,0.0,0.0,37,0.00,,,0.00,Wunderground v.1.15,2013-09-24 09:00:00,
2013-09-24 02:05:00,66.6,37.3,29.82,ESE,107,0.0,1.0,34,0.00,,,0.00,Wunderground v.1.15,2013-09-24 09:05:00,
2013-09-24 02:10:00,66.6,38.1,29.82,ESE,107,0.0,0.0,35,0.00,,,0.00,Wunderground v.1.15,2013-09-24 09:10:00,
2013-09-24 02:15:00,66.1,37.6,29.82,ESE,107,0.0,0.0,35,0.00,,,0.00,Wunderground v.1.15,2013-09-24 09:15:00,
2013-09-24 02:20:00,65.8,37.4,29.82,ESE,107,0.0,0.0,35,0.00,,,0.00,Wunderground v.1.15,2013-09-24 09:20:00,
2013-09-24 02:25:00,66.0,37.5,29.82,ESE,108,0.0,1.0,35,0.00,,,0.00,Wunderground v.1.15,2013-09-24 09:25:00,
2013-09-24 02:30:00,66.3,37.1,29.82,SE,126,0.0,0.0,34,0.00,,,0.00,Wunderground v.1.15,2013-09-24 09:30:00,
2013-09-24 02:35:00,66.7,36.7,29.82,ESE,123,0.0,1.0,33,0.00,,,0.00,Wunderground v.1.15,2013-09-24 09:35:00,
2013-09-24 02:40:00,67.3,36.4,29.82,ESE,110,1.0,2.0,32,0.00,,,0.00,Wunderground v.1.15,2013-09-24 09:40:00,
2013-09-24 02:45:00,68.2,36.4,29.82,ESE,108,2.0,3.0,31,0.00,,,0.00,Wunderground v.1.15,2013-09-24 09:45:00,
2013-09-24 02:50:00,68.8,36.1,29.82,ESE,105,0.0,2.0,30,0.00,,,0.00,Wunderground v.1.15,2013-09-24 09:50:00,
2013-09-24 02:55:00,68.5,39.8,29.82,ESE,105,0.0,2.0,35,0.00,,,0.00,Wunderground v.1.15,2013-09-24 09:55:00,
2013-09-24 03:00:00,67.4,38.8,29.82,ESE,105,0.0,0.0,35,0.00,,,0.00,Wunderground v.1.15,2013-09-24 10:00:00,
2013-09-24 03:05:00,66.4,38.6,29.82,ESE,104,0.0,0.0,36,0.00,,,0.00,Wunderground v.1.15,2013-09-24 10:05:00,
2013-09-24 03:10:00,65.5,39.2,29.82,ESE,104,0.0,0.0,38,0.00,,,0.00,Wunderground v.1.15,2013-09-24 10:10:00,
2013-09-24 03:15:00,64.5,38.3,29.82,ESE,105,0.0,0.0,38,0.00,,,0.00,Wunderground v.1.15,2013-09-24 10:15:00,
2013-09-24 03:20:00,63.7,39.5,29.82,ESE,104,0.0,0.0,41,0.00,,,0.00,Wunderground v.1.15,2013-09-24 10:20:00,
2013-09-24 03:25:00,62.6,40.4,29.82,ESE,104,0.0,0.0,44,0.00,,,0.00,Wunderground v.1.15,2013-09-24 10:25:00,
2013-09-24 03:30:00,61.8,39.6,29.82,ESE,105,0.0,0.0,44,0.00,,,0.00,Wunderground v.1.15,2013-09-24 10:30:00,
2013-09-24 03:35:00,61.3,38.6,29.83,ESE,105,0.0,0.0,43,0.00,,,0.00,Wunderground v.1.15,2013-09-24 10:35:00,
2013-09-24 03:40:00,61.5,40.5,29.83,ESE,104,0.0,0.0,46,0.00,,,0.00,Wunderground v.1.15,2013-09-24 10:40:00,
2013-09-24 03:45:00,62.1,40.5,29.83,East,100,0.0,0.0,45,0.00,,,0.00,Wunderground v.1.15,2013-09-24 10:45:00,
2013-09-24 03:50:00,62.4,40.2,29.83,East,101,0.0,0.0,44,0.00,,,0.00,Wunderground v.1.15,2013-09-24 10:50:00,
2013-09-24 03:55:00,62.4,40.2,29.82,East,100,0.0,0.0,44,0.00,,,0.00,Wunderground v.1.15,2013-09-24 10:55:00,
2013-09-24 04:00:00,62.3,40.1,29.83,East,100,0.0,0.0,44,0.00,,,0.00,Wunderground v.1.15,2013-09-24 11:00:00,
2013-09-24 04:05:00,61.8,40.2,29.83,East,100,0.0,0.0,45,0.00,,,0.00,Wunderground v.1.15,2013-09-24 11:05:00,
2013-09-24 04:10:00,61.2,39.7,29.83,East,100,0.0,0.0,45,0.00,,,0.00,Wunderground v.1.15,2013-09-24 11:10:00,
2013-09-24 04:15:00,61.1,41.2,29.83,East,100,0.0,0.0,48,0.00,,,0.00,Wunderground v.1.15,2013-09-24 11:15:00,
2013-09-24 04:20:00,61.0,40.6,29.83,East,100,0.0,0.0,47,0.00,,,0.00,Wunderground v.1.15,2013-09-24 11:20:00,
2013-09-24 04:25:00,61.4,39.3,29.83,East,100,0.0,1.0,44,0.00,,,0.00,Wunderground v.1.15,2013-09-24 11:25:00,
2013-09-24 04:30:00,62.1,39.3,29.83,East,100,0.0,0.0,43,0.00,,,0.00,Wunderground v.1.15,2013-09-24 11:30:00,
2013-09-24 04:35:00,62.5,38.5,29.83,ESE,113,0.0,1.0,41,0.00,,,0.00,Wunderground v.1.15,2013-09-24 11:35:00,
2013-09-24 04:40:00,63.0,38.3,29.83,ESE,114,0.0,0.0,40,0.00,,,0.00,Wunderground v.1.15,2013-09-24 11:40:00,
2013-09-24 04:45:00,63.1,37.7,29.83,ESE,112,0.0,1.0,39,0.00,,,0.00,Wunderground v.1.15,2013-09-24 11:45:00,
2013-09-24 04:50:00,63.8,37.0,29.83,ESE,110,2.0,2.0,37,0.00,,,0.00,Wunderground v.1.15,2013-09-24 11:50:00,
2013-09-24 04:55:00,64.5,36.9,29.83,ESE,110,1.0,2.0,36,0.00,,,0.00,Wunderground v.1.15,2013-09-24 11:55:00,
2013-09-24 05:00:00,65.0,36.7,29.83,ESE,108,0.0,1.0,35,0.00,,,0.00,Wunderground v.1.15,2013-09-24 12:00:00,
2013-09-24 05:05:00,65.2,37.6,29.83,ESE,110,0.0,1.0,36,0.00,,,0.00,Wunderground v.1.15,2013-09-24 12:05:00,
2013-09-24 05:10:00,64.6,38.4,29.84,ESE,110,0.0,0.0,38,0.00,,,0.00,Wunderground v.1.15,2013-09-24 12:10:00,
2013-09-24 05:15:00,63.9,37.8,29.84,ESE,110,0.0,0.0,38,0.00,,,0.00,Wunderground v.1.15,2013-09-24 12:15:00,
2013-09-24 05:20:00,63.4,37.3,29.84,ESE,110,0.0,0.0,38,0.00,,,0.00,Wunderground v.1.15,2013-09-24 12:20:00,
2013-09-24 05:25:00,63.4,39.9,29.84,ESE,108,0.0,0.0,42,0.00,,,0.00,Wunderground v.1.15,2013-09-24 12:25:00,
2013-09-24 05:30:00,63.0,37.6,29.84,ESE,109,0.0,0.0,39,0.00,,,0.00,Wunderground v.1.15,2013-09-24 12:30:00,
2013-09-24 05:35:00,62.4,38.4,29.84,ESE,109,0.0,0.0,41,0.00,,,0.00,Wunderground v.1.15,2013-09-24 12:35:00,
2013-09-24 05:40:00,62.1,38.1,29.84,ESE,108,0.0,0.0,41,0.00,,,0.00,Wunderground v.1.15,2013-09-24 12:40:00,
2013-09-24 05:45:00,62.3,37.7,29.84,ESE,108,0.0,1.0,40,0.00,,,0.00,Wunderground v.1.15,2013-09-24 12:45:00,
2013-09-24 05:50:00,62.6,37.9,29.85,ESE,109,0.0,0.0,40,0.00,,,0.00,Wunderground v.1.15,2013-09-24 12:50:00,
2013-09-24 05:55:00,61.3,43.0,29.85,NNE,20,0.0,0.0,51,0.00,,,0.00,Wunderground v.1.15,2013-09-24 12:55:00,
2013-09-24 06:00:00,59.6,41.9,29.85,NNE,20,0.0,0.0,52,0.00,,,0.00,Wunderground v.1.15,2013-09-24 13:00:00,
2013-09-24 06:05:00,58.6,43.4,29.85,NNE,20,0.0,0.0,57,0.00,,,0.00,Wunderground v.1.15,2013-09-24 13:05:00,
2013-09-24 06:10:00,57.8,41.7,29.85,NNE,20,0.0,0.0,55,0.00,,,0.00,Wunderground v.1.15,2013-09-24 13:10:00,
2013-09-24 06:15:00,57.6,39.1,29.85,NNE,20,0.0,0.0,50,0.00,,,0.00,Wunderground v.1.15,2013-09-24 13:15:00,
2013-09-24 06:20:00,57.6,39.1,29.85,NNE,20,0.0,0.0,50,0.00,,,0.00,Wunderground v.1.15,2013-09-24 13:20:00,
2013-09-24 06:25:00,57.6,38.0,29.85,NNE,20,0.0,0.0,48,0.00,,,0.00,Wunderground v.1.15,2013-09-24 13:25:00,
2013-09-24 06:30:00,57.8,38.2,29.85,NNE,20,0.0,0.0,48,0.00,,,0.00,Wunderground v.1.15,2013-09-24 13:30:00,
2013-09-24 06:35:00,58.6,37.3,29.86,East,84,0.0,1.0,45,0.00,,,0.00,Wunderground v.1.15,2013-09-24 13:35:00,
2013-09-24 06:40:00,60.0,37.4,29.86,ENE,77,1.0,1.0,43,0.00,,,0.00,Wunderground v.1.15,2013-09-24 13:40:00,
2013-09-24 06:45:00,61.6,37.0,29.86,East,81,1.0,2.0,40,0.00,,,0.00,Wunderground v.1.15,2013-09-24 13:45:00,
2013-09-24 06:50:00,63.2,38.5,29.86,ENE,67,0.0,1.0,40,0.00,,,0.00,Wunderground v.1.15,2013-09-24 13:50:00,
2013-09-24 06:55:00,63.9,39.7,29.86,ENE,66,0.0,1.0,41,0.00,,,0.00,Wunderground v.1.15,2013-09-24 13:55:00,
2013-09-24 07:00:00,64.4,40.2,29.86,ENE,66,0.0,1.0,41,0.00,,,0.00,Wunderground v.1.15,2013-09-24 14:00:00,
2013-09-24 07:05:00,64.9,39.3,29.86,ESE,107,0.0,1.0,39,0.00,,,0.00,Wunderground v.1.15,2013-09-24 14:05:00,
2013-09-24 07:10:00,65.6,39.3,29.86,ESE,107,0.0,0.0,38,0.00,,,0.00,Wunderground v.1.15,2013-09-24 14:10:00,
2013-09-24 07:15:00,66.5,40.1,29.86,ESE,110,0.0,0.0,38,0.00,,,0.00,Wunderground v.1.15,2013-09-24 14:15:00,
2013-09-24 07:20:00,65.6,49.5,29.86,NNW,327,1.0,1.0,56,0.00,,,0.00,Wunderground v.1.15,2013-09-24 14:20:00,
2013-09-24 07:25:00,62.4,47.9,29.87,WNW,297,0.0,2.0,59,0.00,,,0.00,Wunderground v.1.15,2013-09-24 14:25:00,
2013-09-24 07:30:00,61.0,49.1,29.87,WNW,299,0.0,0.0,65,0.00,,,0.00,Wunderground v.1.15,2013-09-24 14:30:00,
2013-09-24 07:35:00,60.8,45.9,29.87,WNW,301,0.0,1.0,58,0.00,,,0.00,Wunderground v.1.15,2013-09-24 14:35:00,
2013-09-24 07:40:00,62.2,38.2,29.87,WNW,302,0.0,0.0,41,0.00,,,0.00,Wunderground v.1.15,2013-09-24 14:40:00,
2013-09-24 07:45:00,64.0,39.2,29.87,WNW,300,0.0,0.0,40,0.00,,,0.00,Wunderground v.1.15,2013-09-24 14:45:00,
2013-09-24 07:50:00,65.9,39.6,29.87,WNW,300,0.0,0.0,38,0.00,,,0.00,Wunderground v.1.15,2013-09-24 14:50:00,
2013-09-24 07:55:00,67.2,39.3,29.87,WNW,300,0.0,0.0,36,0.00,,,0.00,Wunderground v.1.15,2013-09-24 14:55:00,
2013-09-24 08:00:00,68.1,42.2,29.87,WNW,290,0.0,0.0,39,0.00,,,0.00,Wunderground v.1.15,2013-09-24 15:00:00,
2013-09-24 08:05:00,69.2,41.8,29.88,WNW,290,0.0,0.0,37,0.00,,,0.00,Wunderground v.1.15,2013-09-24 15:05:00,
2013-09-24 08:10:00,71.5,40.9,29.88,WNW,291,0.0,0.0,33,0.00,,,0.00,Wunderground v.1.15,2013-09-24 15:10:00,
2013-09-24 08:15:00,73.3,40.8,29.88,WNW,290,0.0,0.0,31,0.00,,,0.00,Wunderground v.1.15,2013-09-24 15:15:00,
2013-09-24 08:20:00,74.2,48.3,29.88,WNW,293,0.0,0.0,40,0.00,,,0.00,Wunderground v.1.15,2013-09-24 15:20:00,
2013-09-24 08:25:00,73.7,45.8,29.88,WNW,293,0.0,1.0,37,0.00,,,0.00,Wunderground v.1.15,2013-09-24 15:25:00,
2013-09-24 08:30:00,73.4,48.9,29.88,NNW,342,1.0,1.0,42,0.00,,,0.00,Wunderground v.1.15,2013-09-24 15:30:00,
2013-09-24 08:35:00,73.0,46.6,29.88,NNE,13,4.0,4.0,39,0.00,,,0.00,Wunderground v.1.15,2013-09-24 15:35:00,
2013-09-24 08:40:00,73.4,44.8,29.88,NNE,12,2.0,2.0,36,0.00,,,0.00,Wunderground v.1.15,2013-09-24 15:40:00,
2013-09-24 08:45:00,74.2,44.8,29.89,North,360,4.0,4.0,35,0.00,,,0.00,Wunderground v.1.15,2013-09-24 15:45:00,
2013-09-24 08:50:00,74.7,44.5,29.89,North,350,2.0,2.0,34,0.00,,,0.00,Wunderground v.1.15,2013-09-24 15:50:00,
2013-09-24 08:55:00,75.2,44.1,29.89,NNW,345,0.0,5.0,33,0.00,,,0.00,Wunderground v.1.15,2013-09-24 15:55:00,
2013-09-24 09:00:00,75.6,45.2,29.89,NNE,18,5.0,5.0,34,0.00,,,0.00,Wunderground v.1.15,2013-09-24 16:00:00,
2013-09-24 09:05:00,76.2,44.2,29.88,NNE,19,2.0,5.0,32,0.00,,,0.00,Wunderground v.1.15,2013-09-24 16:05:00,
2013-09-24 09:10:00,76.4,43.5,29.89,NNW,335,4.0,6.0,31,0.00,,,0.00,Wunderground v.1.15,2013-09-24 16:10:00,
2013-09-24 09:15:00,76.8,43.0,29.89,NNW,346,5.0,7.0,30,0.00,,,0.00,Wunderground v.1.15,2013-09-24 16:15:00,
2013-09-24 09:20:00,77.3,43.4,29.89,NNW,340,3.0,7.0,30,0.00,,,0.00,Wunderground v.1.15,2013-09-24 16:20:00,
2013-09-24 09:25:00,77.7,46.3,29.89,NE,56,0.0,6.0,33,0.00,,,0.00,Wunderground v.1.15,2013-09-24 16:25:00,
2013-09-24 09:30:00,78.3,43.4,29.89,NW,323,3.0,6.0,29,0.00,,,0.00,Wunderground v.1.15,2013-09-24 16:30:00,
2013-09-24 09:35:00,79.0,43.1,29.89,North,353,2.0,5.0,28,0.00,,,0.00,Wunderground v.1.15,2013-09-24 16:35:00,
2013-09-24 09:40:00,79.4,43.4,29.89,North,1,1.0,6.0,28,0.00,,,0.00,Wunderground v.1.15,2013-09-24 16:40:00,
2013-09-24 09:45:00,79.5,45.3,29.89,North,353,4.0,7.0,30,0.00,,,0.00,Wunderground v.1.15,2013-09-24 16:45:00,
2013-09-24 09:50:00,80.2,45.9,29.89,North,4,3.0,7.0,30,0.00,,,0.00,Wunderground v.1.15,2013-09-24 16:50:00,
2013-09-24 09:55:00,81.1,43.0,29.89,NE,44,1.0,6.0,26,0.00,,,0.00,Wunderground v.1.15,2013-09-24 16:55:00,
2013-09-24 10:00:00,81.6,46.3,29.89,NNW,333,4.0,6.0,29,0.00,,,0.00,Wunderground v.1.15,2013-09-24 17:00:00,
2013-09-24 10:04:00,82.1,44.8,29.89,NNW,340,5.0,6.0,27,0.00,,,0.00,Wunderground v.1.15,2013-09-24 17:04:00,
2013-09-24 10:09:00,82.2,45.8,29.89,North,5,2.0,7.0,28,0.00,,,0.00,Wunderground v.1.15,2013-09-24 17:09:00,
2013-09-24 10:14:00,82.6,44.2,29.89,NNW,330,4.0,5.0,26,0.00,,,0.00,Wunderground v.1.15,2013-09-24 17:14:00,
2013-09-24 10:19:00,82.7,45.3,29.89,NW,316,4.0,7.0,27,0.00,,,0.00,Wunderground v.1.15,2013-09-24 17:19:00,
2013-09-24 10:24:00,83.1,46.6,29.88,NW,316,2.0,5.0,28,0.00,,,0.00,Wunderground v.1.15,2013-09-24 17:24:00,
2013-09-24 10:29:00,83.7,48.1,29.88,North,354,3.0,5.0,29,0.00,,,0.00,Wunderground v.1.15,2013-09-24 17:29:00,
2013-09-24 10:34:00,84.4,43.7,29.88,NNW,342,0.0,4.0,24,0.00,,,0.00,Wunderground v.1.15,2013-09-24 17:34:00,
2013-09-24 10:39:00,85.0,45.2,29.88,North,353,2.0,4.0,25,0.00,,,0.00,Wunderground v.1.15,2013-09-24 17:39:00,
2013-09-24 10:44:00,85.4,43.4,29.88,NW,315,3.0,5.0,23,0.00,,,0.00,Wunderground v.1.15,2013-09-24 17:44:00,
2013-09-24 10:49:00,86.0,46.1,29.88,NW,326,4.0,5.0,25,0.00,,,0.00,Wunderground v.1.15,2013-09-24 17:49:00,
2013-09-24 10:54:00,86.6,45.5,29.87,North,359,2.0,3.0,24,0.00,,,0.00,Wunderground v.1.15,2013-09-24 17:54:00,
2013-09-24 10:59:00,86.8,45.7,29.87,NNW,335,3.0,4.0,24,0.00,,,0.00,Wunderground v.1.15,2013-09-24 17:59:00,
2013-09-24 11:04:00,87.3,42.6,29.87,North,353,2.0,3.0,21,0.00,,,0.00,Wunderground v.1.15,2013-09-24 18:04:00,
2013-09-24 11:09:00,87.7,46.4,29.87,North,5,4.0,4.0,24,0.00,,,0.00,Wunderground v.1.15,2013-09-24 18:09:00,
2013-09-24 11:14:00,87.7,46.4,29.87,WNW,288,3.0,5.0,24,0.00,,,0.00,Wunderground v.1.15,2013-09-24 18:14:00,
2013-09-24 11:19:00,87.7,47.5,29.86,NW,312,3.0,5.0,25,0.00,,,0.00,Wunderground v.1.15,2013-09-24 18:19:00,
2013-09-24 11:24:00,88.0,45.6,29.86,WNW,292,1.0,4.0,23,0.00,,,0.00,Wunderground v.1.15,2013-09-24 18:24:00,
2013-09-24 11:29:00,88.4,43.5,29.86,NW,307,3.0,4.0,21,0.00,,,0.00,Wunderground v.1.15,2013-09-24 18:29:00,
2013-09-24 11:34:00,88.8,41.2,29.86,West,260,0.0,3.0,19,0.00,,,0.00,Wunderground v.1.15,2013-09-24 18:34:00,
2013-09-24 11:39:00,89.3,41.6,29.86,West,278,1.0,3.0,19,0.00,,,0.00,Wunderground v.1.15,2013-09-24 18:39:00,
2013-09-24 11:44:00,89.8,45.9,29.86,NW,321,3.0,4.0,22,0.00,,,0.00,Wunderground v.1.15,2013-09-24 18:44:00,
2013-09-24 11:49:00,90.0,44.8,29.86,WSW,253,2.0,4.0,21,0.00,,,0.00,Wunderground v.1.15,2013-09-24 18:49:00,
2013-09-24 11:54:00,90.2,45.0,29.85,WNW,297,2.0,3.0,21,0.00,,,0.00,Wunderground v.1.15,2013-09-24 18:54:00,
2013-09-24 11:59:00,90.6,45.3,29.85,WNW,290,1.0,3.0,21,0.00,,,0.00,Wunderground v.1.15,2013-09-24 18:59:00,
2013-09-24 12:04:00,90.9,44.3,29.85,West,269,2.0,3.0,20,0.00,,,0.00,Wunderground v.1.15,2013-09-24 19:04:00,
2013-09-24 12:09:00,90.9,45.6,29.84,NW,305,3.0,5.0,21,0.00,,,0.00,Wunderground v.1.15,2013-09-24 19:09:00,
2013-09-24 12:14:00,90.7,42.8,29.84,West,281,2.0,6.0,19,0.00,,,0.00,Wunderground v.1.15,2013-09-24 19:14:00,
2013-09-24 12:19:00,91.0,46.9,29.84,NW,312,4.0,6.0,22,0.00,,,0.00,Wunderground v.1.15,2013-09-24 19:19:00,
2013-09-24 12:24:00,91.2,50.5,29.83,WNW,295,2.0,4.0,25,0.00,,,0.00,Wunderground v.1.15,2013-09-24 19:24:00,
2013-09-24 12:29:00,91.5,51.8,29.83,NW,322,5.0,5.0,26,0.00,,,0.00,Wunderground v.1.15,2013-09-24 19:29:00,
2013-09-24 12:34:00,91.6,49.7,29.83,WNW,301,3.0,5.0,24,0.00,,,0.00,Wunderground v.1.15,2013-09-24 19:34:00,
2013-09-24 12:39:00,91.8,51.0,29.83,WNW,285,1.0,5.0,25,0.00,,,0.00,Wunderground v.1.15,2013-09-24 19:39:00,
2013-09-24 12:44:00,92.7,41.5,29.83,WSW,252,4.0,8.0,17,0.00,,,0.00,Wunderground v.1.15,2013-09-24 19:44:00,
2013-09-24 12:49:00,93.1,43.3,29.82,WSW,253,2.0,8.0,18,0.00,,,0.00,Wunderground v.1.15,2013-09-24 19:49:00,
2013-09-24 12:54:00,93.1,43.3,29.82,WSW,257,6.0,8.0,18,0.00,,,0.00,Wunderground v.1.15,2013-09-24 19:54:00,
2013-09-24 12:59:00,92.8,43.1,29.82,West,278,3.0,8.0,18,0.00,,,0.00,Wunderground v.1.15,2013-09-24 19:59:00,
2013-09-24 13:04:00,92.7,44.4,29.81,West,268,9.0,9.0,19,0.00,,,0.00,Wunderground v.1.15,2013-09-24 20:04:00,
2013-09-24 13:09:00,93.1,46.1,29.81,West,264,6.0,9.0,20,0.00,,,0.00,Wunderground v.1.15,2013-09-24 20:09:00,
2013-09-24 13:14:00,92.6,44.3,29.81,West,271,7.0,11.0,19,0.00,,,0.00,Wunderground v.1.15,2013-09-24 20:14:00,
2013-09-24 13:19:00,92.7,41.5,29.81,West,281,5.0,11.0,17,0.00,,,0.00,Wunderground v.1.15,2013-09-24 20:19:00,
2013-09-24 13:24:00,93.1,44.7,29.80,West,263,6.0,9.0,19,0.00,,,0.00,Wunderground v.1.15,2013-09-24 20:24:00,
2013-09-24 13:29:00,93.4,40.5,29.80,West,269,7.0,12.0,16,0.00,,,0.00,Wunderground v.1.15,2013-09-24 20:29:00,
2013-09-24 13:34:00,93.9,42.5,29.80,West,277,7.0,11.0,17,0.00,,,0.00,Wunderground v.1.15,2013-09-24 20:34:00,
2013-09-24 13:39:00,93.9,46.7,29.80,SW,217,4.0,11.0,20,0.00,,,0.00,Wunderground v.1.15,2013-09-24 20:39:00,
2013-09-24 13:44:00,94.5,36.1,29.79,West,277,7.0,12.0,13,0.00,,,0.00,Wunderground v.1.15,2013-09-24 20:44:00,
2013-09-24 13:49:00,94.8,38.2,29.79,West,270,8.0,12.0,14,0.00,,,0.00,Wunderground v.1.15,2013-09-24 20:49:00,
2013-09-24 13:54:00,95.8,37.1,29.79,WSW,258,7.0,9.0,13,0.00,,,0.00,Wunderground v.1.15,2013-09-24 20:54:00,
2013-09-24 13:59:00,95.1,40.2,29.78,West,264,6.0,14.0,15,0.00,,,0.00,Wunderground v.1.15,2013-09-24 20:59:00,
2013-09-24 14:04:00,94.3,42.8,29.78,West,265,7.0,11.0,17,0.00,,,0.00,Wunderground v.1.15,2013-09-24 21:04:00,
2013-09-24 14:09:00,93.8,48.0,29.78,WSW,255,8.0,11.0,21,0.00,,,0.00,Wunderground v.1.15,2013-09-24 21:09:00,
2013-09-24 14:14:00,94.1,44.1,29.78,SW,233,5.0,11.0,18,0.00,,,0.00,Wunderground v.1.15,2013-09-24 21:14:00,
2013-09-24 14:19:00,94.9,36.4,29.77,WSW,255,3.0,11.0,13,0.00,,,0.00,Wunderground v.1.15,2013-09-24 21:19:00,
2013-09-24 14:24:00,95.1,47.7,29.77,West,278,6.0,7.0,20,0.00,,,0.00,Wunderground v.1.15,2013-09-24 21:24:00,
2013-09-24 14:29:00,94.8,38.2,29.77,WSW,255,5.0,9.0,14,0.00,,,0.00,Wunderground v.1.15,2013-09-24 21:29:00,
2013-09-24 14:34:00,95.2,45.0,29.77,WSW,242,5.0,8.0,18,0.00,,,0.00,Wunderground v.1.15,2013-09-24 21:34:00,
2013-09-24 14:39:00,95.1,40.2,29.77,WSW,252,5.0,10.0,15,0.00,,,0.00,Wunderground v.1.15,2013-09-24 21:39:00,
2013-09-24 14:44:00,95.5,36.8,29.76,West,276,2.0,9.0,13,0.00,,,0.00,Wunderground v.1.15,2013-09-24 21:44:00,
2013-09-24 14:49:00,95.5,45.3,29.76,West,263,4.0,9.0,18,0.00,,,0.00,Wunderground v.1.15,2013-09-24 21:49:00,
2013-09-24 14:54:00,96.1,35.3,29.76,WSW,255,5.0,8.0,12,0.00,,,0.00,Wunderground v.1.15,2013-09-24 21:54:00,
2013-09-24 14:59:00,95.9,37.1,29.75,SW,226,2.0,10.0,13,0.00,,,0.00,Wunderground v.1.15,2013-09-24 21:59:00,
2013-09-24 15:04:00,96.4,35.5,29.75,West,264,5.0,8.0,12,0.00,,,0.00,Wunderground v.1.15,2013-09-24 22:04:00,
2013-09-24 15:09:00,96.4,37.5,29.75,SW,225,7.0,11.0,13,0.00,,,0.00,Wunderground v.1.15,2013-09-24 22:09:00,
2013-09-24 15:14:00,96.0,40.9,29.75,West,274,6.0,11.0,15,0.00,,,0.00,Wunderground v.1.15,2013-09-24 22:14:00,
2013-09-24 15:19:00,95.7,42.3,29.74,West,280,5.0,11.0,16,0.00,,,0.00,Wunderground v.1.15,2013-09-24 22:19:00,
2013-09-24 15:24:00,95.9,40.8,29.74,SW,228,5.0,10.0,15,0.00,,,0.00,Wunderground v.1.15,2013-09-24 22:24:00,
2013-09-24 15:29:00,96.9,35.9,29.74,West,263,9.0,10.0,12,0.00,,,0.00,Wunderground v.1.15,2013-09-24 22:29:00,
2013-09-24 15:34:00,96.1,39.2,29.74,West,270,8.0,13.0,14,0.00,,,0.00,Wunderground v.1.15,2013-09-24 22:34:00,
2013-09-24 15:39:00,95.6,36.9,29.74,West,264,11.0,15.0,13,0.00,,,0.00,Wunderground v.1.15,2013-09-24 22:39:00,
2013-09-24 15:44:00,95.9,40.8,29.73,West,263,11.0,12.0,15,0.00,,,0.00,Wunderground v.1.15,2013-09-24 22:44:00,
2013-09-24 15:49:00,96.5,35.6,29.73,West,278,6.0,12.0,12,0.00,,,0.00,Wunderground v.1.15,2013-09-24 22:49:00,
2013-09-24 15:54:00,96.7,37.8,29.73,SW,235,10.0,16.0,13,0.00,,,0.00,Wunderground v.1.15,2013-09-24 22:54:00,
2013-09-24 15:59:00,96.7,35.7,29.73,WSW,246,10.0,16.0,12,0.00,,,0.00,Wunderground v.1.15,2013-09-24 22:59:00,
2013-09-24 16:04:00,96.9,33.7,29.73,West,264,6.0,13.0,11,0.00,,,0.00,Wunderground v.1.15,2013-09-24 23:04:00,
2013-09-24 16:09:00,97.4,31.7,29.73,West,271,9.0,13.0,10,0.00,,,0.00,Wunderground v.1.15,2013-09-24 23:09:00,
2013-09-24 16:14:00,97.3,34.0,29.73,WSW,242,3.0,10.0,11,0.00,,,0.00,Wunderground v.1.15,2013-09-24 23:14:00,
2013-09-24 16:19:00,97.6,34.2,29.72,West,269,7.0,13.0,11,0.00,,,0.00,Wunderground v.1.15,2013-09-24 23:19:00,
2013-09-24 16:24:00,97.6,36.4,29.72,SE,140,2.0,11.0,12,0.00,,,0.00,Wunderground v.1.15,2013-09-24 23:24:00,
2013-09-24 16:29:00,97.6,36.4,29.72,West,262,5.0,11.0,12,0.00,,,0.00,Wunderground v.1.15,2013-09-24 23:29:00,
2013-09-24 16:34:00,97.2,36.1,29.72,WSW,257,6.0,15.0,12,0.00,,,0.00,Wunderground v.1.15,2013-09-24 23:34:00,
2013-09-24 16:39:00,97.2,36.1,29.72,SSW,212,7.0,15.0,12,0.00,,,0.00,Wunderground v.1.15,2013-09-24 23:39:00,
2013-09-24 16:44:00,97.3,38.2,29.72,West,270,8.0,12.0,13,0.00,,,0.00,Wunderground v.1.15,2013-09-24 23:44:00,
2013-09-24 16:49:00,97.1,38.1,29.72,WSW,243,7.0,12.0,13,0.00,,,0.00,Wunderground v.1.15,2013-09-24 23:49:00,
2013-09-24 16:54:00,97.1,38.1,29.72,West,265,3.0,13.0,13,0.00,,,0.00,Wunderground v.1.15,2013-09-24 23:54:00,
2013-09-24 16:59:00,96.8,37.8,29.71,WSW,258,6.0,13.0,13,0.00,,,0.00,Wunderground v.1.15,2013-09-24 23:59:00,
2013-09-24 17:04:00,96.5,39.5,29.71,SW,233,1.0,9.0,14,0.00,,,0.00,Wunderground v.1.15,2013-09-25 00:04:00,
2013-09-24 17:08:00,96.8,39.7,29.71,WSW,240,6.0,9.0,14,0.00,,,0.00,Wunderground v.1.15,2013-09-25 00:08:00,
2013-09-24 17:13:00,96.6,39.6,29.71,WSW,240,6.0,10.0,14,0.00,,,0.00,Wunderground v.1.15,2013-09-25 00:13:00,
2013-09-24 17:18:00,96.5,37.6,29.71,SSW,213,2.0,11.0,13,0.00,,,0.00,Wunderground v.1.15,2013-09-25 00:18:00,
2013-09-24 17:23:00,96.6,41.4,29.71,WSW,242,5.0,7.0,15,0.00,,,0.00,Wunderground v.1.15,2013-09-25 00:23:00,
2013-09-24 17:28:00,96.5,41.3,29.71,WSW,253,4.0,7.0,15,0.00,,,0.00,Wunderground v.1.15,2013-09-25 00:28:00,
2013-09-24 17:33:00,96.2,41.1,29.70,SW,236,4.0,10.0,15,0.00,,,0.00,Wunderground v.1.15,2013-09-25 00:33:00,
2013-09-24 17:38:00,95.7,42.3,29.70,SW,225,5.0,10.0,16,0.00,,,0.00,Wunderground v.1.15,2013-09-25 00:38:00,
2013-09-24 17:43:00,95.3,42.0,29.71,WSW,257,1.0,7.0,16,0.00,,,0.00,Wunderground v.1.15,2013-09-25 00:43:00,
2013-09-24 17:48:00,95.0,41.8,29.70,SW,225,2.0,7.0,16,0.00,,,0.00,Wunderground v.1.15,2013-09-25 00:48:00,
2013-09-24 17:53:00,94.4,44.4,29.70,WSW,252,3.0,9.0,18,0.00,,,0.00,Wunderground v.1.15,2013-09-25 00:53:00,
2013-09-24 17:58:00,93.9,44.0,29.71,SSW,203,1.0,9.0,18,0.00,,,0.00,Wunderground v.1.15,2013-09-25 00:58:00,
2013-09-24 18:03:00,93.6,43.7,29.70,SW,228,3.0,6.0,18,0.00,,,0.00,Wunderground v.1.15,2013-09-25 01:03:00,
2013-09-24 18:08:00,93.3,42.0,29.70,WSW,242,1.0,7.0,17,0.00,,,0.00,Wunderground v.1.15,2013-09-25 01:08:00,
2013-09-24 18:13:00,92.9,41.7,29.70,SE,146,1.0,3.0,17,0.00,,,0.00,Wunderground v.1.15,2013-09-25 01:13:00,
2013-09-24 18:18:00,92.6,42.9,29.70,SSE,166,1.0,7.0,18,0.00,,,0.00,Wunderground v.1.15,2013-09-25 01:18:00,
2013-09-24 18:23:00,91.6,42.1,29.70,WSW,240,1.0,6.0,18,0.00,,,0.00,Wunderground v.1.15,2013-09-25 01:23:00,
2013-09-24 18:28:00,90.6,41.3,29.70,SW,229,4.0,6.0,18,0.00,,,0.00,Wunderground v.1.15,2013-09-25 01:28:00,
2013-09-24 18:33:00,89.9,40.7,29.70,SSW,212,4.0,4.0,18,0.00,,,0.00,Wunderground v.1.15,2013-09-25 01:33:00,
2013-09-24 18:38:00,89.4,40.3,29.70,SW,226,0.0,6.0,18,0.00,,,0.00,Wunderground v.1.15,2013-09-25 01:38:00,
2013-09-24 18:43:00,88.8,41.2,29.70,West,268,0.0,3.0,19,0.00,,,0.00,Wunderground v.1.15,2013-09-25 01:43:00,
2013-09-24 18:48:00,88.3,40.8,29.70,SE,143,1.0,4.0,19,0.00,,,0.00,Wunderground v.1.15,2013-09-25 01:48:00,
2013-09-24 18:53:00,87.8,40.4,29.70,SW,227,2.0,4.0,19,0.00,,,0.00,Wunderground v.1.15,2013-09-25 01:53:00,
2013-09-24 18:58:00,87.3,41.3,29.70,WSW,240,0.0,4.0,20,0.00,,,0.00,Wunderground v.1.15,2013-09-25 01:58:00,
2013-09-24 19:03:00,86.8,40.9,29.70,South,191,0.0,1.0,20,0.00,,,0.00,Wunderground v.1.15,2013-09-25 02:03:00,
2013-09-24 19:08:00,86.2,41.7,29.70,ESE,105,0.0,1.0,21,0.00,,,0.00,Wunderground v.1.15,2013-09-25 02:08:00,
2013-09-24 19:13:00,85.8,41.3,29.70,WSW,253,0.0,1.0,21,0.00,,,0.00,Wunderground v.1.15,2013-09-25 02:13:00,
2013-09-24 19:18:00,85.4,41.0,29.70,SE,143,0.0,1.0,21,0.00,,,0.00,Wunderground v.1.15,2013-09-25 02:18:00,
2013-09-24 19:23:00,84.9,41.8,29.70,West,276,0.0,1.0,22,0.00,,,0.00,Wunderground v.1.15,2013-09-25 02:23:00,
2013-09-24 19:28:00,84.6,41.6,29.70,West,281,0.0,1.0,22,0.00,,,0.00,Wunderground v.1.15,2013-09-25 02:28:00,
2013-09-24 19:33:00,84.3,41.3,29.70,WNW,285,0.0,1.0,22,0.00,,,0.00,Wunderground v.1.15,2013-09-25 02:33:00,
2013-09-24 19:38:00,84.1,42.3,29.70,NW,319,0.0,1.0,23,0.00,,,0.00,Wunderground v.1.15,2013-09-25 02:38:00,
2013-09-24 19:43:00,83.9,41.0,29.71,WNW,300,0.0,0.0,22,0.00,,,0.00,Wunderground v.1.15,2013-09-25 02:43:00,
2013-09-24 19:48:00,83.4,40.6,29.71,WNW,300,0.0,0.0,22,0.00,,,0.00,Wunderground v.1.15,2013-09-25 02:48:00,
2013-09-24 19:53:00,83.1,39.1,29.71,NW,308,0.0,0.0,21,0.00,,,0.00,Wunderground v.1.15,2013-09-25 02:53:00,
2013-09-24 19:58:00,83.1,37.9,29.71,NW,307,0.0,0.0,20,0.00,,,0.00,Wunderground v.1.15,2013-09-25 02:58:00,
2013-09-24 20:03:00,83.5,36.9,29.71,NW,307,0.0,0.0,19,0.00,,,0.00,Wunderground v.1.15,2013-09-25 03:03:00,
2013-09-24 20:08:00,83.8,37.1,29.71,NW,307,0.0,0.0,19,0.00,,,0.00,Wunderground v.1.15,2013-09-25 03:08:00,
2013-09-24 20:13:00,83.8,37.1,29.71,NW,304,0.0,0.0,19,0.00,,,0.00,Wunderground v.1.15,2013-09-25 03:13:00,
2013-09-24 20:18:00,83.8,38.4,29.71,NE,41,0.0,1.0,20,0.00,,,0.00,Wunderground v.1.15,2013-09-25 03:18:00,
2013-09-24 20:23:00,84.0,38.6,29.71,North,8,0.0,1.0,20,0.00,,,0.00,Wunderground v.1.15,2013-09-25 03:23:00,
2013-09-24 20:28:00,83.9,39.8,29.71,NW,308,0.0,1.0,21,0.00,,,0.00,Wunderground v.1.15,2013-09-25 03:28:00,
2013-09-24 20:33:00,83.8,39.7,29.71,NW,312,0.0,0.0,21,0.00,,,0.00,Wunderground v.1.15,2013-09-25 03:33:00,
2013-09-24 20:38:00,83.5,39.4,29.72,NW,312,0.0,0.0,21,0.00,,,0.00,Wunderground v.1.15,2013-09-25 03:38:00,
2013-09-24 20:43:00,83.2,40.4,29.72,NW,307,0.0,1.0,22,0.00,,,0.00,Wunderground v.1.15,2013-09-25 03:43:00,
2013-09-24 20:48:00,83.0,40.2,29.72,WNW,300,0.0,1.0,22,0.00,,,0.00,Wunderground v.1.15,2013-09-25 03:48:00,
2013-09-24 20:53:00,82.8,40.1,29.71,NNW,333,0.0,0.0,22,0.00,,,0.00,Wunderground v.1.15,2013-09-25 03:53:00,
2013-09-24 20:58:00,82.6,39.9,29.71,NW,319,0.0,0.0,22,0.00,,,0.00,Wunderground v.1.15,2013-09-25 03:58:00,
2013-09-24 21:01:00,82.6,38.7,29.71,NW,326,0.0,0.0,21,0.00,,,0.00,Wunderground v.1.15,2013-09-25 04:01:00,
2013-09-24 21:06:00,82.7,40.0,29.71,NNW,340,0.0,0.0,22,0.00,,,0.00,Wunderground v.1.15,2013-09-25 04:06:00,
2013-09-24 21:11:00,82.6,38.7,29.72,NNW,340,0.0,0.0,21,0.00,,,0.00,Wunderground v.1.15,2013-09-25 04:11:00,
2013-09-24 21:16:00,82.5,38.6,29.71,NW,311,0.0,1.0,21,0.00,,,0.00,Wunderground v.1.15,2013-09-25 04:16:00,
2013-09-24 21:21:00,82.5,38.6,29.72,NW,314,0.0,0.0,21,0.00,,,0.00,Wunderground v.1.15,2013-09-25 04:21:00,
2013-09-24 21:26:00,82.4,39.7,29.72,NW,314,0.0,1.0,22,0.00,,,0.00,Wunderground v.1.15,2013-09-25 04:26:00,
2013-09-24 21:31:00,82.1,39.5,29.72,NW,309,0.0,0.0,22,0.00,,,0.00,Wunderground v.1.15,2013-09-25 04:31:00,
2013-09-24 21:36:00,81.7,39.1,29.72,WNW,300,0.0,0.0,22,0.00,,,0.00,Wunderground v.1.15,2013-09-25 04:36:00,
2013-09-24 21:41:00,81.3,38.8,29.72,WNW,300,0.0,0.0,22,0.00,,,0.00,Wunderground v.1.15,2013-09-25 04:41:00,
2013-09-24 21:46:00,80.6,39.4,29.72,WNW,300,0.0,0.0,23,0.00,,,0.00,Wunderground v.1.15,2013-09-25 04:46:00,
2013-09-24 21:51:00,80.1,38.9,29.72,WNW,300,0.0,0.0,23,0.00,,,0.00,Wunderground v.1.15,2013-09-25 04:51:00,
2013-09-24 21:56:00,79.7,38.6,29.72,WNW,302,0.0,1.0,23,0.00,,,0.00,Wunderground v.1.15,2013-09-25 04:56:00,
2013-09-24 22:01:00,79.5,43.5,29.72,WNW,302,0.0,0.0,28,0.00,,,0.00,Wunderground v.1.15,2013-09-25 05:01:00,
2013-09-24 22:06:00,77.5,47.7,29.72,North,6,2.0,2.0,35,0.00,,,0.00,Wunderground v.1.15,2013-09-25 05:06:00,
2013-09-24 22:11:00,74.7,46.0,29.72,North,6,0.0,0.0,36,0.00,,,0.00,Wunderground v.1.15,2013-09-25 05:11:00,
2013-09-24 22:16:00,73.5,46.3,29.72,NE,49,0.0,1.0,38,0.00,,,0.00,Wunderground v.1.15,2013-09-25 05:16:00,
2013-09-24 22:21:00,73.4,46.2,29.72,NE,49,0.0,0.0,38,0.00,,,0.00,Wunderground v.1.15,2013-09-25 05:21:00,
2013-09-24 22:26:00,73.6,45.7,29.72,North,4,0.0,1.0,37,0.00,,,0.00,Wunderground v.1.15,2013-09-25 05:26:00,
2013-09-24 22:31:00,73.9,46.0,29.72,North,357,0.0,0.0,37,0.00,,,0.00,Wunderground v.1.15,2013-09-25 05:31:00,
2013-09-24 22:36:00,73.3,48.2,29.72,NNW,330,0.0,1.0,41,0.00,,,0.00,Wunderground v.1.15,2013-09-25 05:36:00,
2013-09-24 22:41:00,72.3,47.9,29.72,WNW,290,0.0,1.0,42,0.00,,,0.00,Wunderground v.1.15,2013-09-25 05:41:00,
2013-09-24 22:46:00,71.5,47.2,29.72,SW,224,0.0,1.0,42,0.00,,,0.00,Wunderground v.1.15,2013-09-25 05:46:00,
2013-09-24 22:51:00,71.7,46.7,29.72,SW,226,0.0,1.0,41,0.00,,,0.00,Wunderground v.1.15,2013-09-25 05:51:00,
2013-09-24 22:56:00,71.9,46.9,29.72,SW,226,0.0,1.0,41,0.00,,,0.00,Wunderground v.1.15,2013-09-25 05:56:00,
2013-09-24 23:01:00,72.1,45.1,29.72,SW,231,0.0,0.0,38,0.00,,,0.00,Wunderground v.1.15,2013-09-25 06:01:00,
2013-09-24 23:06:00,72.9,45.8,29.73,WSW,245,1.0,2.0,38,0.00,,,0.00,Wunderground v.1.15,2013-09-25 06:06:00,
2013-09-24 23:11:00,72.4,49.9,29.73,West,270,2.0,2.0,45,0.00,,,0.00,Wunderground v.1.15,2013-09-25 06:11:00,
2013-09-24 23:16:00,71.2,47.6,29.73,West,277,3.0,5.0,43,0.00,,,0.00,Wunderground v.1.15,2013-09-25 06:16:00,
2013-09-24 23:21:00,71.7,46.1,29.73,SW,222,0.0,3.0,40,0.00,,,0.00,Wunderground v.1.15,2013-09-25 06:21:00,
2013-09-24 23:26:00,72.1,45.8,29.73,SW,229,0.0,3.0,39,0.00,,,0.00,Wunderground v.1.15,2013-09-25 06:26:00,
2013-09-24 23:31:00,72.6,45.5,29.73,SW,233,0.0,1.0,38,0.00,,,0.00,Wunderground v.1.15,2013-09-25 06:31:00,
2013-09-24 23:36:00,72.7,46.3,29.73,SSW,212,0.0,1.0,39,0.00,,,0.00,Wunderground v.1.15,2013-09-25 06:36:00,
2013-09-24 23:41:00,72.8,45.7,29.73,ESE,120,0.0,1.0,38,0.00,,,0.00,Wunderground v.1.15,2013-09-25 06:41:00,
2013-09-24 23:46:00,73.2,45.4,29.73,ESE,121,0.0,1.0,37,0.00,,,0.00,Wunderground v.1.15,2013-09-25 06:46:00,
2013-09-24 23:51:00,73.7,44.3,29.73,WNW,293,0.0,1.0,35,0.00,,,0.00,Wunderground v.1.15,2013-09-25 06:51:00,
2013-09-24 23:56:00,74.6,44.4,29.73,NW,304,0.0,1.0,34,0.00,,,0.00,Wunderground v.1.15,2013-09-25 06:56:00,